createdAt,value
2023-02-11T00:02:00.956Z,90.40
2023-02-11T00:04:28.978Z,90.40
2023-02-11T00:06:56.925Z,90.60
2023-02-11T00:09:24.885Z,91.00
2023-02-11T00:11:52.856Z,91.00
2023-02-11T00:14:20.793Z,90.80
2023-02-11T00:16:48.895Z,90.40
2023-02-11T00:19:18.246Z,90.20
2023-02-11T00:21:46.177Z,90.20
2023-02-11T00:24:14.209Z,90.50
2023-02-11T00:26:42.206Z,90.50
2023-02-11T00:29:11.775Z,90.60
2023-02-11T00:31:39.859Z,90.60
2023-02-11T00:34:07.911Z,90.60
2023-02-11T00:36:37.569Z,90.60
2023-02-11T00:39:05.616Z,90.70
2023-02-11T00:41:34.002Z,90.50
2023-02-11T00:44:02.599Z,90.70
2023-02-11T00:46:30.731Z,90.80
2023-02-11T00:48:58.732Z,91.20
2023-02-11T00:51:27.213Z,91.20
2023-02-11T00:53:56.556Z,90.90
2023-02-11T00:56:24.551Z,91.30
2023-02-11T00:58:53.336Z,91.40
2023-02-11T01:01:21.491Z,91.60
2023-02-11T01:03:49.478Z,91.10
2023-02-11T01:06:17.535Z,91.00
2023-02-11T01:08:45.970Z,91.00
2023-02-11T01:11:17.469Z,90.80
2023-02-11T01:13:45.780Z,90.60
2023-02-11T01:16:14.298Z,90.60
2023-02-11T01:18:44.299Z,91.20
2023-02-11T01:21:12.338Z,91.00
2023-02-11T01:23:40.495Z,90.80
2023-02-11T01:26:08.647Z,90.90
2023-02-11T01:28:38.024Z,90.80
2023-02-11T01:31:06.187Z,90.90
2023-02-11T01:33:34.579Z,90.90
2023-02-11T01:36:03.679Z,90.80
2023-02-11T01:38:31.907Z,90.90
2023-02-11T01:41:02.467Z,90.70
2023-02-11T01:43:33.914Z,90.90
2023-02-11T01:46:14.761Z,91.30
2023-02-11T01:48:45.670Z,91.10
2023-02-11T01:51:17.799Z,91.10
2023-02-11T01:54:04.820Z,91.00
2023-02-11T01:56:51.925Z,90.90
2023-02-11T01:59:23.954Z,91.00
2023-02-11T02:01:58.119Z,91.00
2023-02-11T02:04:34.089Z,91.10
2023-02-11T02:07:07.344Z,91.40
2023-02-11T02:09:40.534Z,91.70
2023-02-11T02:12:08.567Z,91.50
2023-02-11T02:14:40.326Z,91.50
2023-02-11T02:17:27.363Z,92.00
2023-02-11T02:20:16.212Z,91.60
2023-02-11T02:23:08.341Z,91.70
2023-02-11T02:25:57.861Z,91.70
2023-02-11T02:29:08.041Z,91.50
2023-02-11T02:31:54.217Z,91.50
2023-02-11T02:34:31.678Z,91.50
2023-02-11T02:37:05.446Z,91.40
2023-02-11T02:39:36.449Z,91.70
2023-02-11T02:42:06.036Z,91.70
2023-02-11T02:44:34.724Z,91.50
2023-02-11T02:47:02.789Z,91.30
2023-02-11T02:49:32.089Z,90.90
2023-02-11T02:52:11.033Z,90.90
2023-02-11T02:55:08.684Z,90.90
2023-02-11T02:57:47.956Z,90.80
2023-02-11T03:00:25.034Z,90.80
2023-02-11T03:03:08.951Z,91.10
2023-02-11T03:05:49.577Z,91.10
2023-02-11T03:08:24.255Z,91.50
2023-02-11T03:10:53.860Z,91.70
2023-02-11T03:13:28.175Z,91.50
2023-02-11T03:15:59.612Z,91.30
2023-02-11T03:18:30.488Z,91.10
2023-02-11T03:21:01.033Z,91.00
2023-02-11T03:23:34.205Z,91.00
2023-02-11T03:26:09.337Z,90.90
2023-02-11T03:28:44.071Z,91.10
2023-02-11T03:31:16.948Z,91.00
2023-02-11T03:33:53.081Z,90.90
2023-02-11T03:36:28.203Z,90.90
2023-02-11T03:38:59.547Z,91.00
2023-02-11T03:41:27.588Z,90.90
2023-02-11T03:43:58.126Z,90.90
2023-02-11T03:46:31.577Z,91.10
2023-02-11T03:49:04.442Z,91.10
2023-02-11T03:51:35.755Z,90.70
2023-02-11T03:54:09.943Z,90.90
2023-02-11T03:56:45.914Z,91.00
2023-02-11T03:59:13.882Z,91.10
2023-02-11T04:01:42.253Z,91.30
2023-02-11T04:04:10.328Z,91.00
2023-02-11T04:06:39.849Z,90.80
2023-02-11T04:09:07.868Z,90.50
2023-02-11T04:11:36.024Z,90.90
2023-02-11T04:14:03.991Z,91.40
2023-02-11T04:16:31.957Z,91.40
2023-02-11T04:19:00.753Z,91.00
2023-02-11T04:21:28.653Z,90.90
2023-02-11T04:23:57.918Z,90.90
2023-02-11T04:26:25.873Z,91.00
2023-02-11T04:28:53.788Z,91.60
2023-02-11T04:31:21.850Z,91.10
2023-02-11T04:33:49.923Z,90.80
2023-02-11T04:36:17.965Z,90.80
2023-02-11T04:38:45.913Z,90.80
2023-02-11T04:41:15.628Z,90.80
2023-02-11T04:43:43.586Z,90.70
2023-02-11T04:46:11.565Z,90.80
2023-02-11T04:48:39.531Z,90.30
2023-02-11T04:51:07.644Z,90.80
2023-02-11T04:53:35.592Z,91.20
2023-02-11T04:56:03.532Z,90.50
2023-02-11T04:58:32.841Z,90.50
2023-02-11T05:01:07.194Z,90.60
2023-02-11T05:03:35.333Z,90.80
2023-02-11T05:06:03.440Z,90.80
2023-02-11T05:08:31.579Z,90.80
2023-02-11T05:10:59.556Z,90.90
2023-02-11T05:13:27.435Z,90.80
2023-02-11T05:15:56.854Z,90.80
2023-02-11T05:18:25.093Z,90.70
2023-02-11T05:20:53.001Z,90.60
2023-02-11T05:23:20.939Z,90.70
2023-02-11T05:25:49.236Z,90.40
2023-02-11T05:28:17.526Z,90.40
2023-02-11T05:30:45.486Z,90.70
2023-02-11T05:33:14.863Z,90.70
2023-02-11T05:35:42.744Z,90.70
2023-02-11T05:38:10.629Z,90.70
2023-02-11T05:40:38.948Z,90.90
2023-02-11T05:43:07.023Z,90.80
2023-02-11T05:45:35.448Z,90.80
2023-02-11T05:48:05.669Z,90.80
2023-02-11T05:50:35.030Z,90.80
2023-02-11T05:53:03.433Z,90.90
2023-02-11T05:55:31.569Z,90.80
2023-02-11T05:57:59.649Z,90.90
2023-02-11T06:00:28.197Z,90.70
2023-02-11T06:02:56.189Z,91.30
2023-02-11T06:05:24.157Z,91.40
2023-02-11T06:07:53.531Z,91.10
2023-02-11T06:10:21.817Z,91.20
2023-02-11T06:12:49.725Z,91.10
2023-02-11T06:15:17.931Z,91.00
2023-02-11T06:17:45.839Z,90.90
2023-02-11T06:20:14.254Z,90.90
2023-02-11T06:22:42.260Z,90.90
2023-02-11T06:25:12.047Z,91.10
2023-02-11T06:27:40.408Z,91.10
2023-02-11T06:30:09.636Z,91.00
2023-02-11T06:32:46.002Z,91.30
2023-02-11T06:35:15.220Z,91.30
2023-02-11T06:37:43.414Z,91.40
2023-02-11T06:40:13.527Z,91.30
2023-02-11T06:42:41.634Z,91.20
2023-02-11T06:45:10.912Z,91.30
2023-02-11T06:47:38.972Z,91.10
2023-02-11T06:50:09.178Z,91.20
2023-02-11T06:52:37.380Z,91.10
2023-02-11T06:55:05.724Z,91.30
2023-02-11T06:57:35.076Z,91.30
2023-02-11T07:00:03.013Z,90.90
2023-02-11T07:02:31.026Z,90.70
2023-02-11T07:04:59.053Z,90.60
2023-02-11T07:07:28.348Z,90.50
2023-02-11T07:09:56.223Z,90.40
2023-02-11T07:12:24.196Z,90.20
2023-02-11T07:14:53.916Z,90.00
2023-02-11T07:17:21.820Z,89.40
2023-02-11T07:19:49.920Z,89.60
2023-02-11T07:22:17.979Z,88.80
2023-02-11T07:24:46.352Z,89.80
2023-02-11T07:27:14.653Z,89.60
2023-02-11T07:29:43.801Z,89.80
2023-02-11T07:32:13.411Z,89.50
2023-02-11T07:34:42.458Z,89.60
2023-02-11T07:37:10.897Z,89.60
2023-02-11T07:39:38.871Z,89.20
2023-02-11T07:42:07.232Z,89.00
2023-02-11T07:44:36.829Z,89.50
2023-02-11T07:47:04.910Z,88.70
2023-02-11T07:49:34.269Z,89.30
2023-02-11T07:52:02.294Z,89.70
2023-02-11T07:54:30.281Z,89.30
2023-02-11T07:56:58.797Z,89.40
2023-02-11T07:59:27.530Z,89.40
2023-02-11T08:01:55.657Z,89.60
2023-02-11T08:04:23.724Z,89.50
2023-02-11T08:06:56.495Z,89.20
2023-02-11T08:09:25.843Z,87.90
2023-02-11T08:11:53.795Z,88.60
2023-02-11T08:14:21.824Z,88.50
2023-02-11T08:16:49.820Z,87.80
2023-02-11T08:19:18.325Z,88.40
2023-02-11T08:21:46.980Z,87.20
2023-02-11T08:24:16.859Z,88.10
2023-02-11T08:26:44.913Z,87.70
2023-02-11T08:29:14.497Z,88.10
2023-02-11T08:31:44.729Z,88.30
2023-02-11T08:34:14.433Z,87.10
2023-02-11T08:36:44.685Z,87.20
2023-02-11T08:39:20.265Z,87.50
2023-02-11T08:41:49.737Z,87.10
2023-02-11T08:44:18.471Z,86.50
2023-02-11T08:46:46.503Z,86.00
2023-02-11T08:49:15.471Z,86.10
2023-02-11T08:51:43.668Z,84.90
2023-02-11T08:54:11.686Z,84.70
2023-02-11T08:56:41.032Z,83.50
2023-02-11T08:59:10.233Z,83.90
2023-02-11T09:01:38.390Z,83.70
2023-02-11T09:04:06.676Z,84.00
2023-02-11T09:06:34.625Z,83.10
2023-02-11T09:09:02.654Z,83.30
2023-02-11T09:11:33.698Z,83.40
2023-02-11T09:14:03.791Z,83.30
2023-02-11T09:16:34.064Z,83.40
2023-02-11T09:19:03.795Z,84.70
2023-02-11T09:21:32.989Z,85.30
2023-02-11T09:24:00.995Z,85.20
2023-02-11T09:26:31.773Z,84.20
2023-02-11T09:29:00.776Z,83.70
2023-02-11T09:31:32.343Z,83.70
2023-02-11T09:34:01.866Z,83.30
2023-02-11T09:36:31.835Z,81.10
2023-02-11T09:39:02.237Z,81.20
2023-02-11T09:42:15.275Z,80.50
2023-02-11T09:44:46.038Z,80.30
2023-02-11T09:47:25.663Z,80.50
2023-02-11T09:49:57.136Z,80.20
2023-02-11T09:52:34.572Z,81.00
2023-02-11T09:55:04.800Z,78.90
2023-02-11T09:57:35.338Z,78.40
2023-02-11T10:00:16.686Z,79.20
2023-02-11T10:03:15.338Z,79.90
2023-02-11T10:05:58.328Z,80.20
2023-02-11T10:08:37.661Z,80.80
2023-02-11T10:11:22.575Z,80.00
2023-02-11T10:14:04.871Z,80.20
2023-02-11T10:16:49.696Z,81.60
2023-02-11T10:19:50.609Z,80.50
2023-02-11T10:22:23.614Z,81.40
2023-02-11T10:24:54.524Z,81.80
2023-02-11T10:27:32.158Z,81.20
2023-02-11T10:30:03.714Z,81.90
2023-02-11T10:32:39.610Z,80.60
2023-02-11T10:35:17.948Z,81.80
2023-02-11T10:37:46.325Z,81.40
2023-02-11T10:40:16.452Z,82.00
2023-02-11T10:42:50.301Z,82.00
2023-02-11T10:45:24.432Z,81.90
2023-02-11T10:47:52.525Z,82.30
2023-02-11T10:50:25.335Z,81.60
2023-02-11T10:52:53.293Z,82.20
2023-02-11T10:55:25.253Z,81.90
2023-02-11T10:57:59.289Z,83.50
2023-02-11T11:00:39.008Z,82.20
2023-02-11T11:03:17.524Z,82.60
2023-02-11T11:05:50.591Z,82.80
2023-02-11T11:08:19.840Z,83.30
2023-02-11T11:10:50.372Z,81.90
2023-02-11T11:13:30.744Z,81.70
2023-02-11T11:16:32.252Z,82.60
2023-02-11T11:19:22.131Z,81.50
2023-02-11T11:21:53.508Z,81.80
2023-02-11T11:24:25.532Z,82.00
2023-02-11T11:26:57.763Z,81.40
2023-02-11T11:29:33.790Z,82.90
2023-02-11T11:32:05.438Z,82.10
2023-02-11T11:34:37.148Z,82.50
2023-02-11T11:37:15.423Z,81.90
2023-02-11T11:39:43.624Z,82.40
2023-02-11T11:42:26.902Z,83.30
2023-02-11T11:45:00.774Z,83.50
2023-02-11T11:47:35.147Z,83.80
2023-02-11T11:50:24.513Z,83.00
2023-02-11T11:53:00.107Z,84.60
2023-02-11T11:55:32.944Z,85.20
2023-02-11T11:58:01.090Z,84.10
2023-02-11T12:00:36.165Z,85.10
2023-02-11T12:03:48.746Z,85.10
2023-02-11T12:06:27.617Z,85.90
2023-02-11T12:09:08.987Z,84.40
2023-02-11T12:11:47.556Z,83.80
2023-02-11T12:14:29.369Z,84.50
2023-02-11T12:17:05.253Z,85.10
2023-02-11T12:19:56.515Z,85.40
2023-02-11T12:22:38.967Z,85.80
2023-02-11T12:25:25.618Z,85.00
2023-02-11T12:28:04.198Z,85.20
2023-02-11T12:31:07.539Z,85.90
2023-02-11T12:33:52.886Z,85.10
2023-02-11T12:36:33.188Z,85.10
2023-02-11T12:39:13.853Z,85.50
2023-02-11T12:42:22.492Z,85.10
2023-02-11T12:45:09.219Z,85.20
2023-02-11T12:47:47.331Z,85.20
2023-02-11T12:50:23.248Z,84.30
2023-02-11T12:53:10.768Z,85.70
2023-02-11T12:55:44.293Z,84.10
2023-02-11T12:58:18.712Z,85.50
2023-02-11T13:00:52.682Z,85.70
2023-02-11T13:03:26.497Z,85.70
2023-02-11T13:05:57.975Z,85.40
2023-02-11T13:08:31.640Z,85.10
2023-02-11T13:11:03.253Z,84.30
2023-02-11T13:13:37.202Z,84.50
2023-02-11T13:16:07.823Z,84.50
2023-02-11T13:18:49.299Z,84.90
2023-02-11T13:21:39.164Z,84.00
2023-02-11T13:24:16.756Z,84.40
2023-02-11T13:26:53.154Z,84.60
2023-02-11T13:29:30.759Z,84.90
2023-02-11T13:32:08.541Z,84.90
2023-02-11T13:34:56.237Z,85.30
2023-02-11T13:37:26.440Z,85.60
2023-02-11T13:39:59.497Z,86.70
2023-02-11T13:42:28.172Z,86.70
2023-02-11T13:44:58.047Z,86.60
2023-02-11T13:47:33.389Z,86.50
2023-02-11T13:50:03.412Z,87.00
2023-02-11T13:52:34.883Z,87.70
2023-02-11T13:55:10.706Z,87.50
2023-02-11T13:57:40.583Z,87.80
2023-02-11T14:00:45.881Z,87.70
2023-02-11T14:03:50.558Z,88.40
2023-02-11T14:06:41.094Z,88.60
2023-02-11T14:09:37.668Z,89.30
2023-02-11T14:12:26.068Z,89.30
2023-02-11T14:15:19.827Z,89.60
2023-02-11T14:17:49.112Z,89.70
2023-02-11T14:20:37.483Z,90.00
2023-02-11T14:23:06.689Z,90.00
2023-02-11T14:25:34.955Z,90.20
2023-02-11T14:28:11.267Z,90.10
2023-02-11T14:31:01.430Z,90.00
2023-02-11T14:34:03.770Z,90.30
2023-02-11T14:37:05.887Z,90.30
2023-02-11T14:39:47.325Z,90.20
2023-02-11T14:42:20.817Z,90.40
2023-02-11T14:44:51.210Z,90.90
2023-02-11T14:47:23.833Z,90.60
2023-02-11T14:49:53.175Z,90.50
2023-02-11T14:52:28.488Z,90.60
2023-02-11T14:55:06.001Z,90.80
2023-02-11T14:57:34.395Z,91.20
2023-02-11T15:00:06.330Z,91.60
2023-02-11T15:02:36.869Z,92.00
2023-02-11T15:05:22.340Z,91.90
2023-02-11T15:07:53.887Z,91.70
2023-02-11T15:10:31.296Z,92.20
2023-02-11T15:13:00.578Z,92.60
2023-02-11T15:15:29.313Z,93.00
2023-02-11T15:18:01.975Z,92.80
2023-02-11T15:20:33.358Z,93.10
2023-02-11T15:23:04.145Z,92.70
2023-02-11T15:25:34.177Z,92.70
2023-02-11T15:28:02.628Z,92.60
2023-02-11T15:30:34.207Z,92.40
2023-02-11T15:33:05.648Z,92.80
2023-02-11T15:35:36.805Z,92.50
2023-02-11T15:38:06.097Z,92.30
2023-02-11T15:40:36.235Z,92.80
2023-02-11T15:43:06.380Z,92.60
2023-02-11T15:45:36.124Z,92.90
2023-02-11T15:48:10.575Z,92.60
2023-02-11T15:50:41.991Z,92.70
2023-02-11T15:53:31.958Z,92.70
2023-02-11T15:56:09.729Z,92.70
2023-02-11T15:58:38.669Z,92.90
2023-02-11T16:01:07.639Z,93.10
2023-02-11T16:03:35.905Z,93.00
2023-02-11T16:06:23.332Z,92.90
2023-02-11T16:09:02.721Z,93.00
2023-02-11T16:11:32.544Z,93.00
2023-02-11T16:14:04.133Z,93.20
2023-02-11T16:16:35.449Z,93.30
2023-02-11T16:19:06.533Z,93.00
2023-02-11T16:21:38.997Z,93.20
2023-02-11T16:24:08.935Z,93.30
2023-02-11T16:26:41.043Z,93.50
2023-02-11T16:29:13.291Z,93.30
2023-02-11T16:31:43.293Z,93.40
2023-02-11T16:34:16.983Z,93.70
2023-02-11T16:36:47.132Z,93.80
2023-02-11T16:39:16.705Z,93.90
2023-02-11T16:41:44.823Z,93.80
2023-02-11T16:44:12.711Z,93.90
2023-02-11T16:46:40.828Z,93.70
2023-02-11T16:49:13.713Z,94.00
2023-02-11T16:51:43.662Z,93.70
2023-02-11T16:54:17.856Z,94.00
2023-02-11T16:56:46.043Z,93.90
2023-02-11T16:59:14.151Z,94.00
2023-02-11T17:01:44.147Z,94.30
2023-02-11T17:04:18.604Z,94.50
2023-02-11T17:06:48.009Z,94.50
2023-02-11T17:09:20.718Z,94.20
2023-02-11T17:11:49.055Z,94.50
2023-02-11T17:14:17.299Z,94.60
2023-02-11T17:16:46.365Z,94.40
2023-02-11T17:19:16.214Z,94.20
2023-02-11T17:21:44.713Z,94.30
2023-02-11T17:24:14.286Z,94.60
2023-02-11T17:26:44.025Z,94.60
2023-02-11T17:29:14.053Z,94.80
2023-02-11T17:31:42.581Z,94.70
2023-02-11T17:34:11.030Z,94.70
2023-02-11T17:36:41.228Z,95.00
2023-02-11T17:39:09.820Z,94.80
2023-02-11T17:41:38.201Z,95.20
2023-02-11T17:44:08.367Z,95.10
2023-02-11T17:46:36.568Z,95.50
2023-02-11T17:49:05.274Z,95.80
2023-02-11T17:51:35.189Z,95.70
2023-02-11T17:54:05.349Z,96.10
2023-02-11T17:56:35.306Z,96.20
2023-02-11T17:59:04.156Z,96.20
2023-02-11T18:01:35.392Z,96.20
2023-02-11T18:04:04.218Z,96.60
2023-02-11T18:06:33.708Z,96.70
2023-02-11T18:09:04.149Z,96.90
2023-02-11T18:11:34.862Z,96.80
2023-02-11T18:14:04.589Z,97.30
2023-02-11T18:16:35.231Z,97.80
2023-02-11T18:19:03.741Z,98.30
2023-02-11T18:21:32.180Z,98.70
2023-02-11T18:24:05.996Z,98.90
2023-02-11T18:26:34.948Z,99.20
2023-02-11T18:29:03.771Z,99.10
2023-02-11T18:31:35.172Z,99.40
2023-02-11T18:34:03.637Z,99.80
2023-02-11T18:36:32.308Z,99.40
2023-02-11T18:39:00.593Z,99.40
2023-02-11T18:41:28.889Z,99.80
2023-02-11T18:44:02.609Z,99.90
2023-02-11T18:46:31.298Z,99.70
2023-02-11T18:49:00.925Z,99.60
2023-02-11T18:51:31.789Z,99.60
2023-02-11T18:54:01.105Z,99.90
2023-02-11T18:56:29.550Z,99.90
2023-02-11T18:59:01.105Z,99.90
2023-02-11T19:01:30.965Z,99.90
2023-02-11T19:04:02.820Z,99.60
2023-02-11T19:06:36.241Z,99.80
2023-02-11T19:09:11.308Z,99.40
2023-02-11T19:11:58.106Z,99.30
2023-02-11T19:14:28.437Z,99.10
2023-02-11T19:16:58.672Z,98.50
2023-02-11T19:19:29.901Z,98.40
2023-02-11T19:21:58.765Z,98.30
2023-02-11T19:24:27.683Z,98.50
2023-02-11T19:26:58.315Z,98.90
2023-02-11T19:29:26.428Z,98.50
2023-02-11T19:31:54.679Z,98.10
2023-02-11T19:34:23.170Z,98.00
2023-02-11T19:36:54.107Z,97.70
2023-02-11T19:39:24.001Z,97.80
2023-02-11T19:41:51.925Z,98.00
2023-02-11T19:44:20.675Z,98.20
2023-02-11T19:46:50.197Z,98.50
2023-02-11T19:49:22.844Z,98.40
2023-02-11T19:51:52.780Z,98.20
2023-02-11T19:54:21.443Z,98.90
2023-02-11T19:56:49.947Z,98.70
2023-02-11T19:59:17.891Z,98.80
2023-02-11T20:01:47.753Z,98.80
2023-02-11T20:04:15.954Z,99.40
2023-02-11T20:06:43.897Z,99.20
2023-02-11T20:09:15.316Z,99.50
2023-02-11T20:11:43.996Z,99.60
2023-02-11T20:14:14.755Z,99.80
2023-02-11T20:16:49.258Z,99.90
2023-02-11T20:19:19.452Z,99.90
2023-02-11T20:21:50.076Z,99.90
2023-02-11T20:24:20.798Z,99.90
2023-02-11T20:26:49.232Z,99.60
2023-02-11T20:29:18.234Z,99.50
2023-02-11T20:31:46.681Z,99.50
2023-02-11T20:34:17.432Z,99.60
2023-02-11T20:36:51.398Z,99.70
2023-02-11T20:39:22.402Z,99.60
2023-02-11T20:41:51.272Z,99.80
2023-02-11T20:44:19.308Z,99.30
2023-02-11T20:46:47.605Z,99.90
2023-02-11T20:49:18.692Z,99.90
2023-02-11T20:51:47.006Z,99.80
2023-02-11T20:54:17.114Z,99.90
2023-02-11T20:56:48.256Z,99.90
2023-02-11T20:59:17.188Z,99.90
2023-02-11T21:01:46.952Z,99.90
2023-02-11T21:04:16.639Z,99.90
2023-02-11T21:06:47.143Z,99.90
2023-02-11T21:09:19.566Z,99.90
2023-02-11T21:11:51.485Z,99.90
2023-02-11T21:14:20.305Z,99.90
2023-02-11T21:16:48.614Z,99.90
2023-02-11T21:19:17.288Z,99.90
2023-02-11T21:21:45.278Z,99.90
2023-02-11T21:24:13.657Z,99.90
2023-02-11T21:26:41.587Z,99.90
2023-02-11T21:29:11.580Z,99.90
2023-02-11T21:31:39.795Z,99.90
2023-02-11T21:34:08.166Z,99.90
2023-02-11T21:36:36.271Z,99.90
2023-02-11T21:39:05.831Z,99.90
2023-02-11T21:41:34.044Z,99.90
2023-02-11T21:44:02.064Z,99.90
2023-02-11T21:46:32.008Z,99.90
2023-02-11T21:49:00.367Z,99.90
2023-02-11T21:51:28.518Z,99.90
2023-02-11T21:53:58.216Z,99.90
2023-02-11T21:56:27.978Z,99.90
2023-02-11T21:58:58.289Z,99.90
2023-02-11T22:01:28.352Z,99.90
2023-02-11T22:03:57.915Z,99.90
2023-02-11T22:06:27.533Z,99.90
2023-02-11T22:08:56.299Z,99.90
2023-02-11T22:11:25.110Z,99.90
2023-02-11T22:13:54.795Z,99.90
2023-02-11T22:16:23.183Z,99.90
2023-02-11T22:18:51.437Z,99.90
2023-02-11T22:21:22.482Z,99.90
2023-02-11T22:23:50.940Z,99.90
2023-02-11T22:26:21.664Z,99.90
2023-02-11T22:28:50.689Z,99.90
2023-02-11T22:31:20.989Z,99.90
2023-02-11T22:33:49.882Z,99.90
2023-02-11T22:36:21.518Z,99.90
2023-02-11T22:38:49.859Z,99.90
2023-02-11T22:41:18.304Z,99.90
2023-02-11T22:43:46.570Z,99.90
2023-02-11T22:46:15.948Z,99.90
2023-02-11T22:48:44.033Z,99.90
2023-02-11T22:51:13.832Z,99.90
2023-02-11T22:53:43.564Z,99.90
2023-02-11T22:56:15.368Z,99.90
2023-02-11T22:58:44.233Z,99.90
2023-02-11T23:01:12.806Z,99.90
2023-02-11T23:03:40.840Z,99.90
2023-02-11T23:06:09.656Z,99.90
2023-02-11T23:08:39.467Z,99.90
2023-02-11T23:11:10.591Z,99.90
2023-02-11T23:13:40.885Z,99.90
2023-02-11T23:16:11.140Z,99.90
2023-02-11T23:18:41.243Z,99.90
2023-02-11T23:21:12.506Z,99.90
2023-02-11T23:23:41.130Z,99.90
2023-02-11T23:26:13.227Z,99.90
2023-02-11T23:28:41.514Z,99.90
2023-02-11T23:31:17.689Z,99.90
2023-02-11T23:33:45.822Z,99.90
2023-02-11T23:36:14.064Z,99.90
2023-02-11T23:38:42.023Z,99.90
2023-02-11T23:41:11.758Z,99.90
2023-02-11T23:43:39.984Z,99.90
2023-02-11T23:46:09.248Z,99.90
2023-02-11T23:48:37.672Z,99.90
2023-02-11T23:51:06.414Z,99.90
2023-02-11T23:53:34.330Z,99.90
2023-02-11T23:56:02.247Z,99.90
2023-02-11T23:58:31.622Z,99.90
